1669 Diamondview Road Private Strip

CA-0043 · 安大略, 加拿大

使用的METAR站距离机场16 NM。
罗盘
风向 的 风向 200° 1669 Diamondview Road Private Strip 6/24
风: 4 kt, 2 beaufort

4 kt

2 kt
改变
0 ft 6.000 12.000 18.000 24.000 30.000
Cloud Cloud
FEW 6.900
Cloud Cloud Cloud Cloud Cloud Cloud
BKN 22.000
METAR CYOW 181100Z 20004KT 15SM FEW069 BKN220 21/21 A3011 RMK AC2CI3 SLP196 DENSITY ALT 1000FT

METAR 1669 Diamondview Road Private Strip - CA-0043

1669 Diamondview Road Private Strip是,加拿大中的小机场。 该机场位于纬度45,31769和经度-76,05632。 该机场有一条跑道: 6/24. 这个机场没有ICAO代码,我们使用CA-0043作为参考。 机场在Montreal FIR中。

该航空气象观测是针对Ottawa/Macdonald-Cartier International Airport在2024年6月18日 07:00, 当地时间进行的。

机场观察

风向为200°,速度为4 kt。

可见度为15 mi。

有几云在6.900 ft的高度 和 碎云在22.000 ft的高度。 破损或更高的上限为22.000 ft。

温度和风寒是21 °C。 露点为21 °C,相对湿度为100%。 海平面上的气压为30,11 inHg (QNH)。

白天

今天,太阳从05:15升起,在20:55降落。 这适用于1669 Diamondview Road Private Strip,世界夏令时可能有所不同。 当地时间与世界标准时间之间的时差为-4 小时。 夏令时目前正在进行中。

公司介绍

我们没有关于这个机场的公司信息。

体会

到Vliegles.nl去找飞行课程,跳伞和其他飞行体验。 浏览页面,了解1669 Diamondview Road Private Strip附近所有可用的活动。 你也可以使用搜索功能来寻找你所在地附近的特定飞行课程、跳伞或其他飞行体验。

跑道

Id 标题 侧风 逆风 侧风 %
6/24 048°-228° 2 kt 4 kt 47 %

逆风成分最大的方向会被突出显示,并用于横风计算。 这并不一定意味着这个方向在使用。

乌云

6.900 ft FEW 几云
22.000 ft BKN 碎云

温度 & 天气

温度 21 °C
露点 21 °C
相对湿度 100%
Kp-index 2 (0-9)

评论

SLP196海平面压力为30,11 inHg (30,11 inHg)
AC2CI3 DENSITY ALT 1000FT

白天

日出
05:14
中午
13:03
日落
20:53 (13:00)

小工具

你想在你的网站上有一个关于1669 Diamondview Road Private Strip的当前航空天气(METAR)的小部件吗?

显示HTML代码
报告变更